Time;durP1;ratioP1;P1;durP2;ratioP2;P2;SDS_P1;SDS_P2;PMS_P1;PMS_P2;Temp;Humidity;BMP_temperature;BMP_pressure;BME280_temperature;BME280_humidity;BME280_pressure;Samples;Min_cycle;Max_cycle;Signal;HPM_P1;HPM_P2
2021/08/27 00:01:28;;;;;;;12.13;8.93;;;;;;;19.01;66.44;93401.84;4973739;28;20069;-74
2021/08/27 00:03:54;;;;;;;13.57;9.07;;;;;;;19.05;66.46;93393.75;4976672;28;20042;-75
2021/08/27 00:06:20;;;;;;;13.88;9.57;;;;;;;19.18;65.90;93395.75;4977541;28;20254;-75
2021/08/27 00:08:47;;;;;;;19.63;10.00;;;;;;;18.94;66.92;93398.31;4976945;28;20054;-75
2021/08/27 00:11:13;;;;;;;14.45;11.30;;;;;;;18.88;67.33;93406.75;4974220;28;20038;-75
2021/08/27 00:13:40;;;;;;;13.57;9.75;;;;;;;18.89;67.74;93402.13;4975214;28;20019;-76
2021/08/27 00:16:06;;;;;;;12.35;9.52;;;;;;;19.08;66.88;93403.78;4977400;28;20072;-75
2021/08/27 00:18:31;;;;;;;17.00;12.07;;;;;;;19.10;66.14;93380.72;4969711;28;20496;-74
2021/08/27 00:20:56;;;;;;;19.40;13.10;;;;;;;19.03;66.89;93404.91;4975241;28;20045;-75
2021/08/27 00:23:22;;;;;;;19.80;12.48;;;;;;;19.08;67.38;93409.16;4975066;28;20049;-75
2021/08/27 00:25:47;;;;;;;21.45;12.23;;;;;;;19.06;66.74;93406.09;4973928;28;20505;-75
2021/08/27 00:28:13;;;;;;;16.30;12.43;;;;;;;19.01;67.21;93406.44;4976345;28;20062;-76
2021/08/27 00:30:38;;;;;;;16.80;10.18;;;;;;;19.21;66.24;93413.88;4970269;28;20189;-75
2021/08/27 00:33:04;;;;;;;12.57;9.52;;;;;;;19.29;65.19;93387.72;4976670;28;20382;-76
2021/08/27 00:35:29;;;;;;;13.43;9.23;;;;;;;19.21;65.92;93418.50;4973870;28;20244;-75
2021/08/27 00:37:54;;;;;;;15.63;9.85;;;;;;;19.17;66.42;93404.22;4978009;28;20080;-76
2021/08/27 00:40:20;;;;;;;12.93;9.32;;;;;;;19.14;66.80;93411.16;4977464;28;20471;-75
2021/08/27 00:42:46;;;;;;;16.50;9.88;;;;;;;19.08;67.50;93393.00;4979644;28;20053;-76
2021/08/27 00:45:11;;;;;;;15.02;9.75;;;;;;;19.12;67.05;93412.66;4974284;28;20210;-75
2021/08/27 00:47:37;;;;;;;11.23;9.55;;;;;;;19.10;67.27;93406.88;4979454;28;20038;-75
2021/08/27 00:50:04;;;;;;;16.40;11.05;;;;;;;19.03;67.64;93390.66;4973941;28;20053;-75
2021/08/27 00:52:30;;;;;;;12.75;10.07;;;;;;;19.18;67.13;93409.25;4979324;28;20544;-75
2021/08/27 00:54:55;;;;;;;14.90;8.70;;;;;;;19.14;67.09;93397.66;4975901;28;20042;-75
2021/08/27 00:57:20;;;;;;;17.02;9.00;;;;;;;19.20;67.30;93412.34;4976220;28;20433;-76
2021/08/27 00:59:46;;;;;;;12.55;7.70;;;;;;;19.14;67.34;93405.75;4977321;28;20042;-75
2021/08/27 01:02:12;;;;;;;15.13;8.55;;;;;;;19.07;67.51;93400.31;4973128;28;20041;-77
2021/08/27 01:04:42;;;;;;;9.73;7.63;;;;;;;19.32;66.88;93419.31;4977604;28;20027;-75
2021/08/27 01:07:20;;;;;;;12.32;8.43;;;;;;;19.44;65.72;93408.22;4976040;28;20640;-75
2021/08/27 01:10:06;;;;;;;12.45;7.78;;;;;;;19.25;66.88;93392.34;4990211;28;20053;-75
2021/08/27 01:12:37;;;;;;;11.88;8.40;;;;;;;19.24;67.15;93406.97;4976133;28;20034;-76
2021/08/27 01:15:20;;;;;;;11.55;8.98;;;;;;;19.16;67.24;93391.91;4977683;28;20050;-75
2021/08/27 01:18:18;;;;;;;10.38;8.30;;;;;;;19.26;67.48;93401.97;4967116;28;20596;-75
2021/08/27 01:21:31;;;;;;;14.40;9.32;;;;;;;19.33;67.17;93410.88;4977635;28;20069;-75
2021/08/27 01:23:59;;;;;;;20.80;9.18;;;;;;;19.32;66.85;93398.53;4961780;28;20038;-75
2021/08/27 01:26:32;;;;;;;12.60;9.18;;;;;;;19.48;65.69;93395.56;4974037;28;20501;-75
2021/08/27 01:28:57;;;;;;;15.77;9.98;;;;;;;19.60;65.62;93395.19;4974724;28;20457;-75
2021/08/27 01:31:25;;;;;;;16.58;10.02;;;;;;;19.62;65.90;93406.41;4976261;28;20015;-75
2021/08/27 01:34:09;;;;;;;16.38;11.30;;;;;;;19.56;65.98;93426.00;4976323;28;20578;-75
2021/08/27 01:36:38;;;;;;;16.35;10.65;;;;;;;19.47;66.07;93431.75;4976677;28;20064;-74
2021/08/27 01:39:06;;;;;;;17.98;11.50;;;;;;;19.38;66.39;93438.63;4974730;28;20078;-75
2021/08/27 01:41:34;;;;;;;20.35;14.25;;;;;;;19.15;67.31;93433.47;4973380;28;20034;-75
2021/08/27 01:44:05;;;;;;;18.35;12.85;;;;;;;19.02;66.90;93402.59;4976521;28;20456;-75
2021/08/27 01:46:39;;;;;;;20.45;12.23;;;;;;;19.15;66.90;93420.00;4971666;28;20136;-75
2021/08/27 01:49:07;;;;;;;27.45;13.93;;;;;;;18.63;69.56;93399.59;4975625;28;20045;-75
2021/08/27 01:51:35;;;;;;;21.45;13.45;;;;;;;18.67;69.63;93401.19;4972054;28;20518;-76
2021/08/27 01:54:03;;;;;;;27.10;13.93;;;;;;;18.64;69.96;93396.53;4975922;28;20504;-76
2021/08/27 01:56:29;;;;;;;17.27;10.52;;;;;;;18.94;68.22;93420.63;4971421;28;20050;-76
2021/08/27 01:58:57;;;;;;;15.50;7.85;;;;;;;18.99;67.27;93422.22;4976311;28;20121;-75
2021/08/27 02:01:24;;;;;;;15.65;7.60;;;;;;;18.66;68.42;93401.56;4967209;28;20400;-75
2021/08/27 02:03:52;;;;;;;14.57;6.47;;;;;;;18.54;69.00;93396.44;4976719;28;20038;-75
2021/08/27 02:06:18;;;;;;;12.02;6.25;;;;;;;18.46;69.48;93384.84;4974011;28;20046;-75
2021/08/27 02:08:45;;;;;;;8.88;5.13;;;;;;;18.46;69.13;93374.09;4975414;28;20030;-76
2021/08/27 02:11:11;;;;;;;9.73;4.88;;;;;;;18.54;68.96;93386.44;4971671;28;20030;-77
2021/08/27 02:13:37;;;;;;;16.23;6.20;;;;;;;18.62;69.08;93387.28;4971751;28;20437;-75
2021/08/27 02:16:06;;;;;;;11.38;5.75;;;;;;;18.79;68.14;93392.81;4973456;28;20088;-75
2021/08/27 02:18:32;;;;;;;16.30;5.63;;;;;;;18.74;67.77;93368.94;4972141;28;20043;-75
2021/08/27 02:20:57;;;;;;;11.77;4.60;;;;;;;18.80;66.68;93370.13;4972852;28;20077;-75
2021/08/27 02:23:26;;;;;;;8.05;3.60;;;;;;;18.83;65.88;93385.53;4972306;28;20134;-75
2021/08/27 02:25:52;;;;;;;10.00;5.25;;;;;;;19.01;65.52;93387.59;4975369;28;20088;-75
2021/08/27 02:28:18;;;;;;;13.57;6.63;;;;;;;19.08;66.16;93409.16;4972333;28;20446;-75
2021/08/27 02:30:45;;;;;;;10.90;7.18;;;;;;;18.86;67.25;93400.19;4976010;28;20126;-75
2021/08/27 02:33:12;;;;;;;11.77;7.95;;;;;;;18.87;67.43;93394.41;4970016;28;20038;-76
2021/08/27 02:35:39;;;;;;;12.98;7.57;;;;;;;18.82;67.81;93397.44;4972609;28;20045;-75
2021/08/27 02:38:05;;;;;;;10.77;7.13;;;;;;;18.85;68.00;93402.13;4974372;28;20034;-76
2021/08/27 02:40:31;;;;;;;12.80;6.88;;;;;;;18.85;67.46;93385.94;4971876;28;20074;-75
2021/08/27 02:42:56;;;;;;;10.43;6.38;;;;;;;18.88;67.78;93393.25;4977348;28;20117;-75
2021/08/27 02:45:21;;;;;;;13.38;7.38;;;;;;;18.99;67.07;93385.25;4971170;28;20042;-75
2021/08/27 02:47:47;;;;;;;11.38;7.72;;;;;;;19.11;66.58;93397.66;4975830;28;20061;-76
2021/08/27 02:50:13;;;;;;;12.38;8.00;;;;;;;19.08;66.93;93411.88;4970141;28;20493;-75
2021/08/27 02:52:45;;;;;;;12.88;6.93;;;;;;;19.17;66.76;93415.00;4976968;28;20065;-75
2021/08/27 02:55:22;;;;;;;11.15;7.22;;;;;;;19.14;66.50;93408.44;4987133;28;20101;-75
2021/08/27 02:58:09;;;;;;;10.60;7.22;;;;;;;19.13;66.72;93408.81;4973255;28;20531;-75
2021/08/27 03:00:38;;;;;;;15.05;7.57;;;;;;;19.11;66.51;93420.00;4971268;28;20100;-75
2021/08/27 03:03:06;;;;;;;12.80;7.85;;;;;;;18.95;67.16;93413.34;4975121;28;20038;-75
2021/08/27 03:05:38;;;;;;;15.73;8.05;;;;;;;18.94;67.58;93409.09;4974776;28;20034;-76
2021/08/27 03:08:07;;;;;;;12.07;8.45;;;;;;;18.76;67.33;93382.03;4973406;28;20575;-75
2021/08/27 03:10:43;;;;;;;13.88;8.23;;;;;;;18.80;68.23;93409.75;4974194;28;20429;-75
2021/08/27 03:13:13;;;;;;;12.30;7.85;;;;;;;18.82;68.06;93412.88;4974493;28;20105;-75
2021/08/27 03:15:53;;;;;;;11.80;7.15;;;;;;;18.59;68.06;93396.88;4974444;28;20560;-75
2021/08/27 03:18:30;;;;;;;11.20;6.18;;;;;;;18.68;67.23;93397.31;4988771;28;20488;-75
2021/08/27 03:21:02;;;;;;;11.48;5.60;;;;;;;18.63;66.93;93378.81;4972841;28;20129;-75
2021/08/27 03:23:31;;;;;;;10.32;6.68;;;;;;;18.70;67.23;93395.06;4970893;28;20107;-75
2021/08/27 03:26:01;;;;;;;8.63;5.65;;;;;;;18.78;67.46;93399.34;4975040;28;20030;-75
2021/08/27 03:28:30;;;;;;;9.80;5.97;;;;;;;18.77;67.46;93399.75;4973320;28;20047;-75
2021/08/27 03:30:56;;;;;;;12.93;6.00;;;;;;;19.00;66.70;93391.41;4974592;28;20580;-75
2021/08/27 03:33:26;;;;;;;11.27;8.18;;;;;;;19.01;66.09;93376.81;4990310;28;20035;-76
2021/08/27 03:35:54;;;;;;;12.13;8.60;;;;;;;19.11;65.96;93411.91;4980135;28;20228;-75
2021/08/27 03:38:23;;;;;;;12.30;7.63;;;;;;;18.79;67.67;93411.69;4979514;28;20583;-75
2021/08/27 03:40:50;;;;;;;11.43;7.78;;;;;;;18.73;68.38;93418.56;4974710;28;20120;-75
2021/08/27 03:43:16;;;;;;;9.82;6.32;;;;;;;18.86;67.43;93436.00;4979292;28;20034;-75
2021/08/27 03:45:42;;;;;;;15.00;9.77;;;;;;;18.69;68.24;93431.19;4975968;28;20046;-75
2021/08/27 03:48:08;;;;;;;16.65;7.63;;;;;;;18.66;68.40;93420.41;4974895;28;20409;-75
2021/08/27 03:50:34;;;;;;;12.27;7.55;;;;;;;18.50;69.02;93412.56;4977418;28;20038;-74
2021/08/27 03:52:59;;;;;;;11.52;7.63;;;;;;;18.36;69.68;93404.38;4979597;28;20374;-75
2021/08/27 03:55:27;;;;;;;12.35;7.75;;;;;;;18.34;70.27;93401.28;4979875;28;20026;-75
2021/08/27 03:57:55;;;;;;;12.60;7.68;;;;;;;18.35;69.74;93383.97;4979779;28;20052;-74
2021/08/27 04:00:22;;;;;;;15.90;9.23;;;;;;;18.33;69.94;93399.75;4976931;28;20059;-76
2021/08/27 04:02:52;;;;;;;10.18;7.38;;;;;;;18.49;69.80;93397.56;4973084;28;20488;-75
2021/08/27 04:05:23;;;;;;;10.82;7.03;;;;;;;18.70;68.47;93403.16;4978696;28;20391;-75
2021/08/27 04:07:50;;;;;;;11.38;7.55;;;;;;;18.76;68.19;93398.19;4974673;28;20126;-76
2021/08/27 04:10:18;;;;;;;23.20;7.57;;;;;;;18.84;68.23;93410.56;4976636;28;20336;-75
2021/08/27 04:12:44;;;;;;;13.63;7.60;;;;;;;18.91;67.96;93418.69;4974932;28;20500;-75
2021/08/27 04:15:13;;;;;;;11.95;8.88;;;;;;;18.97;67.74;93419.88;4976160;28;20038;-75
2021/08/27 04:17:40;;;;;;;21.02;8.45;;;;;;;18.96;67.88;93417.56;4974227;28;20497;-75
2021/08/27 04:20:08;;;;;;;14.55;7.60;;;;;;;18.88;68.07;93420.22;4977554;28;20026;-75
2021/08/27 04:22:34;;;;;;;13.73;8.48;;;;;;;18.95;67.76;93427.56;4977116;28;20030;-75
2021/08/27 04:24:59;;;;;;;14.40;8.50;;;;;;;19.10;67.09;93423.06;4976312;28;20026;-75
2021/08/27 04:27:25;;;;;;;11.18;8.15;;;;;;;19.14;66.71;93429.25;4976425;28;20069;-74
2021/08/27 04:29:50;;;;;;;12.98;8.68;;;;;;;18.92;67.32;93420.22;4972566;28;20440;-75
2021/08/27 04:32:17;;;;;;;14.10;8.57;;;;;;;18.94;67.79;93430.63;4977069;28;20406;-75
2021/08/27 04:34:42;;;;;;;12.80;9.07;;;;;;;18.90;67.91;93414.47;4976447;28;20508;-75
2021/08/27 04:37:08;;;;;;;15.00;9.10;;;;;;;18.87;68.02;93413.25;4975189;28;20030;-75
2021/08/27 04:39:33;;;;;;;19.75;9.45;;;;;;;18.75;68.40;93410.09;4975894;28;20507;-75
2021/08/27 04:42:00;;;;;;;13.10;8.63;;;;;;;18.82;68.61;93424.41;4978268;28;20097;-75
2021/08/27 04:44:26;;;;;;;10.45;7.68;;;;;;;19.04;68.09;93440.72;4977537;28;20042;-76
2021/08/27 04:46:51;;;;;;;13.60;7.50;;;;;;;19.07;67.54;93435.34;4974124;28;20096;-75
2021/08/27 04:49:17;;;;;;;10.15;7.50;;;;;;;18.93;68.20;93421.00;4976372;28;20042;-75
2021/08/27 04:51:42;;;;;;;11.25;7.30;;;;;;;18.96;67.85;93426.44;4973131;28;20501;-75
2021/08/27 04:54:08;;;;;;;13.25;7.47;;;;;;;19.04;67.95;93435.31;4978331;28;20435;-75
2021/08/27 04:56:33;;;;;;;10.52;7.00;;;;;;;19.07;67.81;93438.03;4972378;28;20042;-75
2021/08/27 04:58:58;;;;;;;14.43;7.97;;;;;;;19.33;67.37;93437.06;4974785;28;20096;-75
2021/08/27 05:01:24;;;;;;;10.32;7.13;;;;;;;19.20;67.69;93431.22;4976705;28;20025;-75
2021/08/27 05:03:49;;;;;;;12.80;7.65;;;;;;;19.15;67.72;93423.47;4975673;28;20031;-74
2021/08/27 05:06:14;;;;;;;12.80;8.73;;;;;;;19.20;67.92;93417.72;4976550;28;20039;-76
2021/08/27 05:08:40;;;;;;;9.57;8.15;;;;;;;19.46;66.97;93422.13;4976762;28;20046;-75
2021/08/27 05:11:05;;;;;;;15.63;9.05;;;;;;;19.24;67.93;93423.13;4976538;28;20032;-76
2021/08/27 05:13:31;;;;;;;12.18;7.82;;;;;;;19.19;68.57;93432.34;4973093;28;20026;-75
2021/08/27 05:15:56;;;;;;;11.80;7.63;;;;;;;19.30;68.20;93438.59;4975210;28;20637;-75
2021/08/27 05:18:22;;;;;;;12.27;8.95;;;;;;;19.36;67.96;93432.84;4974224;28;20070;-76
2021/08/27 05:20:47;;;;;;;12.20;8.35;;;;;;;19.22;69.09;93431.59;4974072;28;20227;-75
2021/08/27 05:23:13;;;;;;;11.45;8.75;;;;;;;19.14;68.34;93419.22;4973770;28;20038;-75
2021/08/27 05:25:38;;;;;;;16.73;9.15;;;;;;;19.41;68.41;93427.84;4976562;28;20025;-75
2021/08/27 05:28:04;;;;;;;15.60;10.07;;;;;;;19.48;67.39;93433.31;4973972;28;20147;-76
2021/08/27 05:30:29;;;;;;;15.68;9.80;;;;;;;19.46;66.87;93429.44;4977317;28;20049;-75
2021/08/27 05:32:55;;;;;;;13.80;10.13;;;;;;;19.48;67.35;93433.31;4974147;28;20030;-75
2021/08/27 05:35:21;;;;;;;12.40;9.48;;;;;;;19.47;66.40;93426.38;4975831;28;20449;-76
2021/08/27 05:37:47;;;;;;;13.27;11.18;;;;;;;19.55;67.50;93444.16;4973128;28;20035;-75
2021/08/27 05:40:13;;;;;;;14.00;10.13;;;;;;;19.54;67.11;93433.72;4974407;28;20101;-75
2021/08/27 05:42:40;;;;;;;13.20;9.23;;;;;;;19.51;67.22;93443.34;4974725;28;20046;-76
2021/08/27 05:45:06;;;;;;;17.25;10.73;;;;;;;19.59;67.51;93447.63;4974504;28;20039;-75
2021/08/27 05:47:32;;;;;;;14.07;9.80;;;;;;;19.55;67.48;93454.94;4975572;28;20038;-75
2021/08/27 05:50:01;;;;;;;14.52;9.55;;;;;;;19.56;66.87;93440.28;4974863;28;20029;-75
2021/08/27 05:52:27;;;;;;;15.00;10.60;;;;;;;19.45;67.83;93455.66;4975407;28;20037;-76
2021/08/27 05:54:52;;;;;;;16.67;11.13;;;;;;;19.39;67.77;93446.34;4972283;28;20042;-75
2021/08/27 05:57:18;;;;;;;14.68;10.27;;;;;;;19.58;67.73;93448.78;4973565;28;20182;-75
2021/08/27 05:59:43;;;;;;;13.25;9.90;;;;;;;19.72;66.91;93454.22;4971943;28;20053;-75
2021/08/27 06:02:09;;;;;;;13.55;11.00;;;;;;;19.63;68.01;93456.50;4972232;28;21250;-75
2021/08/27 06:04:34;;;;;;;18.20;10.43;;;;;;;19.63;67.75;93466.53;4971822;28;20477;-75
2021/08/27 06:07:00;;;;;;;14.95;10.98;;;;;;;19.64;67.23;93460.75;4973269;28;20042;-75
2021/08/27 06:09:25;;;;;;;12.65;11.23;;;;;;;19.58;67.49;93448.78;4974154;28;20042;-75
2021/08/27 06:11:51;;;;;;;13.70;10.85;;;;;;;19.61;67.50;93464.19;4971753;28;20030;-75
2021/08/27 06:14:16;;;;;;;14.38;11.23;;;;;;;19.58;68.16;93464.97;4970495;28;20058;-75
2021/08/27 06:16:42;;;;;;;15.32;11.35;;;;;;;19.60;68.38;93473.44;4972986;28;20171;-77
2021/08/27 06:19:08;;;;;;;16.52;12.13;;;;;;;19.64;67.40;93452.66;4974198;28;20042;-76
2021/08/27 06:21:35;;;;;;;17.02;13.05;;;;;;;19.55;67.21;93471.13;4975070;28;20035;-75
2021/08/27 06:24:01;;;;;;;16.77;12.30;;;;;;;19.71;66.82;93458.06;4973131;28;20042;-75
2021/08/27 06:26:27;;;;;;;15.18;12.07;;;;;;;19.87;65.98;93454.28;4975863;28;20509;-75
2021/08/27 06:28:52;;;;;;;16.98;12.85;;;;;;;19.66;67.23;93450.34;4968964;28;20275;-75
2021/08/27 06:31:18;;;;;;;18.13;13.00;;;;;;;19.65;67.51;93456.88;4976013;28;20038;-75
2021/08/27 06:33:43;;;;;;;20.92;13.25;;;;;;;19.84;66.70;93455.06;4970409;28;20130;-75
2021/08/27 06:36:09;;;;;;;16.08;12.68;;;;;;;19.85;66.83;93451.22;4973585;28;20125;-75
2021/08/27 06:38:35;;;;;;;15.68;13.15;;;;;;;19.65;67.89;93448.78;4970242;28;20034;-75
2021/08/27 06:41:04;;;;;;;13.98;12.27;;;;;;;19.74;68.23;93456.56;4975390;28;20030;-75
2021/08/27 06:43:33;;;;;;;16.00;13.93;;;;;;;19.79;67.99;93452.72;4973055;28;20026;-75
2021/08/27 06:46:03;;;;;;;16.42;12.98;;;;;;;20.08;66.06;93459.78;4974289;28;20218;-75
2021/08/27 06:48:30;;;;;;;17.60;13.43;;;;;;;19.99;66.68;93456.66;4974820;28;20092;-75
2021/08/27 06:50:55;;;;;;;16.55;13.88;;;;;;;19.99;67.85;93457.44;4971904;28;20490;-75
2021/08/27 06:53:21;;;;;;;15.02;12.75;;;;;;;19.75;67.31;93448.06;4971162;28;20116;-76
2021/08/27 06:55:46;;;;;;;16.23;13.07;;;;;;;19.74;68.33;93470.06;4971660;28;20490;-76
2021/08/27 06:58:12;;;;;;;14.98;12.57;;;;;;;19.91;67.74;93480.13;4972843;28;20042;-75
2021/08/27 07:00:37;;;;;;;15.60;12.68;;;;;;;19.98;67.19;93452.41;4971742;28;20154;-75
2021/08/27 07:03:03;;;;;;;19.15;13.90;;;;;;;20.13;67.42;93470.97;4973012;28;20046;-76
2021/08/27 07:05:29;;;;;;;17.52;14.40;;;;;;;20.22;67.57;93472.56;4972687;28;20054;-76
2021/08/27 07:07:54;;;;;;;18.83;14.88;;;;;;;20.27;68.35;93478.38;4975021;28;20045;-75
2021/08/27 07:10:20;;;;;;;15.73;13.40;;;;;;;20.17;66.28;93471.78;4976607;28;20149;-75
2021/08/27 07:12:47;;;;;;;18.38;14.43;;;;;;;20.26;67.01;93471.41;4976672;28;20157;-76
2021/08/27 07:15:13;;;;;;;15.93;13.63;;;;;;;20.34;67.01;93472.19;4978912;28;20468;-75
2021/08/27 07:17:39;;;;;;;17.58;14.45;;;;;;;20.39;67.02;93471.81;4977529;28;20069;-75
2021/08/27 07:20:05;;;;;;;22.48;13.40;;;;;;;20.26;67.27;93471.41;4976337;28;20548;-75
2021/08/27 07:22:30;;;;;;;22.30;15.02;;;;;;;20.29;67.66;93481.44;4976506;28;20159;-76
2021/08/27 07:24:56;;;;;;;19.33;15.90;;;;;;;20.37;67.68;93483.03;4971538;28;20043;-76
2021/08/27 07:27:21;;;;;;;17.45;14.95;;;;;;;20.39;68.37;93472.59;4976624;28;20479;-76
2021/08/27 07:29:47;;;;;;;21.52;14.93;;;;;;;20.37;67.36;93495.75;4973134;28;20042;-75
2021/08/27 07:32:12;;;;;;;22.75;15.90;;;;;;;20.47;66.76;93474.16;4971550;28;20026;-76
2021/08/27 07:34:42;;;;;;;20.48;15.20;;;;;;;20.62;67.57;93485.00;4970663;28;20156;-75
2021/08/27 07:37:08;;;;;;;19.52;15.10;;;;;;;20.54;67.37;93474.16;4974254;28;20240;-75
2021/08/27 07:39:34;;;;;;;19.08;15.25;;;;;;;20.75;67.24;93496.97;4972654;28;20042;-76
2021/08/27 07:41:59;;;;;;;19.10;15.43;;;;;;;20.75;66.20;93484.22;4977893;28;20034;-75
2021/08/27 07:44:25;;;;;;;19.83;16.33;;;;;;;20.87;65.08;93493.94;4973078;28;20543;-75
2021/08/27 07:46:50;;;;;;;22.92;16.88;;;;;;;20.79;66.21;93474.19;4972517;28;20030;-75
2021/08/27 07:49:15;;;;;;;25.65;17.45;;;;;;;20.79;65.54;93479.59;4973405;28;20070;-75
2021/08/27 07:51:46;;;;;;;20.90;17.33;;;;;;;20.94;64.98;93493.91;4971740;28;20038;-75
2021/08/27 07:54:11;;;;;;;19.90;15.60;;;;;;;21.06;65.30;93492.78;4971649;28;20404;-76
2021/08/27 07:56:37;;;;;;;26.77;17.15;;;;;;;21.04;65.95;93482.34;4973204;28;20043;-75
2021/08/27 07:59:02;;;;;;;20.67;16.90;;;;;;;21.02;64.31;93480.00;4975396;28;20037;-76
2021/08/27 08:01:28;;;;;;;18.90;16.23;;;;;;;21.22;64.66;93491.19;4974580;28;20038;-76
2021/08/27 08:03:53;;;;;;;18.73;15.57;;;;;;;21.23;64.79;93489.28;4976108;28;20454;-75
2021/08/27 08:06:19;;;;;;;20.05;15.45;;;;;;;21.23;64.18;93490.03;4974551;28;20049;-77
2021/08/27 08:08:44;;;;;;;19.90;16.17;;;;;;;20.86;64.11;93486.94;4972917;28;20413;-77
2021/08/27 08:11:10;;;;;;;20.25;16.73;;;;;;;21.10;64.75;93491.59;4974745;28;20037;-76
2021/08/27 08:13:35;;;;;;;22.25;18.48;;;;;;;21.15;64.87;93485.03;4970436;28;20453;-75
2021/08/27 08:16:01;;;;;;;22.73;18.33;;;;;;;21.20;65.76;93496.25;4971310;28;20041;-76
2021/08/27 08:18:26;;;;;;;27.10;17.77;;;;;;;21.35;66.02;93484.25;4971739;28;20157;-75
2021/08/27 08:20:51;;;;;;;22.05;16.92;;;;;;;21.39;64.79;93492.34;4974950;28;20038;-75
2021/08/27 08:23:17;;;;;;;21.35;17.88;;;;;;;21.34;63.83;93496.22;4974670;28;20569;-75
2021/08/27 08:25:42;;;;;;;24.85;18.33;;;;;;;21.32;64.63;93487.72;4975521;28;20029;-77
2021/08/27 08:28:09;;;;;;;21.63;16.88;;;;;;;21.28;64.66;93486.94;4970076;28;20046;-76
2021/08/27 08:30:34;;;;;;;24.30;18.83;;;;;;;21.27;65.37;93479.22;4972984;28;20038;-76
2021/08/27 08:33:00;;;;;;;23.15;17.40;;;;;;;21.28;65.34;93478.06;4973406;28;20053;-75
2021/08/27 08:35:25;;;;;;;22.10;17.83;;;;;;;21.26;64.14;93467.66;4970535;28;20054;-75
2021/08/27 08:37:51;;;;;;;20.15;17.55;;;;;;;21.41;64.31;93471.84;4974046;28;20022;-76
2021/08/27 08:40:17;;;;;;;21.25;16.58;;;;;;;21.62;64.26;93481.91;4971909;28;20503;-76
2021/08/27 08:42:42;;;;;;;22.40;16.48;;;;;;;21.61;63.91;93466.81;4975551;28;20045;-75
2021/08/27 08:45:08;;;;;;;20.95;17.00;;;;;;;21.27;63.62;93474.59;4973496;28;20043;-75
2021/08/27 08:47:37;;;;;;;22.48;17.33;;;;;;;21.48;63.76;93462.97;4973975;28;20401;-75
2021/08/27 08:50:04;;;;;;;19.05;16.65;;;;;;;21.69;63.29;93473.00;4970579;28;20354;-75
2021/08/27 08:52:30;;;;;;;21.83;16.20;;;;;;;21.64;62.47;93460.63;4972411;28;20153;-78
2021/08/27 08:54:56;;;;;;;23.10;16.42;;;;;;;21.48;61.99;93470.31;4971899;28;20128;-75
2021/08/27 08:57:22;;;;;;;19.45;17.15;;;;;;;21.67;61.43;93475.31;4969292;28;20601;-75
2021/08/27 08:59:48;;;;;;;23.73;18.60;;;;;;;21.73;62.27;93481.88;4968429;28;20038;-75
2021/08/27 09:02:13;;;;;;;20.70;16.58;;;;;;;21.78;61.44;93481.47;4970612;28;20116;-75
2021/08/27 09:04:39;;;;;;;22.98;15.90;;;;;;;21.76;60.09;93484.56;4973586;28;20030;-76
2021/08/27 09:07:05;;;;;;;18.70;16.15;;;;;;;21.79;60.41;93472.97;4969503;28;20117;-76
2021/08/27 09:09:35;;;;;;;18.98;16.83;;;;;;;21.92;62.22;93486.84;4971346;28;20054;-76
2021/08/27 09:12:17;;;;;;;20.48;16.25;;;;;;;21.87;60.47;93465.59;4972443;28;20042;-75
2021/08/27 09:14:54;;;;;;;20.60;15.27;;;;;;;21.95;58.40;93482.59;4972180;28;20078;-75
2021/08/27 09:17:30;;;;;;;24.38;15.50;;;;;;;21.99;60.28;93457.03;4970649;28;20042;-75
2021/08/27 09:19:56;;;;;;;21.98;16.65;;;;;;;21.94;59.23;93456.66;4972468;28;20173;-75
2021/08/27 09:22:21;;;;;;;20.05;15.95;;;;;;;22.02;61.53;93460.88;4970896;28;20527;-76
2021/08/27 09:25:04;;;;;;;19.40;15.13;;;;;;;22.02;57.78;93458.16;4973402;28;20725;-75
2021/08/27 09:27:29;;;;;;;20.88;16.23;;;;;;;22.12;58.37;93458.13;4969084;28;20042;-78
2021/08/27 09:29:55;;;;;;;19.30;16.63;;;;;;;22.25;58.90;93467.38;4970352;28;20678;-76
2021/08/27 09:32:27;;;;;;;24.70;16.77;;;;;;;22.29;58.63;93459.25;4971293;28;20054;-75
2021/08/27 09:35:00;;;;;;;18.77;15.10;;;;;;;22.35;60.01;93454.16;4966979;28;20268;-75
2021/08/27 09:37:47;;;;;;;16.48;14.77;;;;;;;22.45;59.72;93461.47;4972940;28;20042;-75
2021/08/27 09:40:19;;;;;;;21.50;15.23;;;;;;;22.51;58.91;93454.47;4966654;28;20642;-75
2021/08/27 09:42:52;;;;;;;22.00;15.55;;;;;;;22.55;58.02;93439.72;4974522;28;20039;-75
2021/08/27 09:45:19;;;;;;;18.45;15.20;;;;;;;22.61;58.38;93450.91;4970809;28;20571;-76
2021/08/27 09:47:58;;;;;;;19.52;16.33;;;;;;;22.61;58.46;93429.22;4972997;28;20492;-75
2021/08/27 09:50:26;;;;;;;22.23;15.68;;;;;;;22.83;58.16;93446.88;4969510;28;20094;-75
2021/08/27 09:52:54;;;;;;;21.40;15.93;;;;;;;22.77;56.97;93448.47;4974011;28;20026;-75
2021/08/27 09:55:20;;;;;;;21.13;16.13;;;;;;;22.83;58.77;93444.16;4973302;28;20775;-76
2021/08/27 09:57:46;;;;;;;20.25;16.30;;;;;;;22.73;58.04;93413.25;4972001;28;20038;-75
2021/08/27 10:00:21;;;;;;;21.65;14.90;;;;;;;23.01;57.85;93430.50;4974941;28;20038;-75
2021/08/27 10:02:48;;;;;;;17.73;14.02;;;;;;;23.14;56.87;93432.31;4972954;28;20054;-76
2021/08/27 10:05:15;;;;;;;21.02;15.02;;;;;;;23.27;57.38;93429.09;4975197;28;20077;-77
2021/08/27 10:07:41;;;;;;;17.88;14.35;;;;;;;23.25;56.55;93421.34;4972595;28;20213;-75
2021/08/27 10:10:12;;;;;;;18.63;14.77;;;;;;;23.35;55.05;93422.44;4973651;28;20047;-76
2021/08/27 10:12:41;;;;;;;17.90;14.75;;;;;;;23.43;55.12;93419.22;4970794;28;20140;-75
2021/08/27 10:15:10;;;;;;;19.90;16.45;;;;;;;23.34;54.45;93415.44;4972643;28;20050;-75
2021/08/27 10:17:37;;;;;;;19.88;14.25;;;;;;;23.42;53.59;93409.53;4974024;28;20050;-76
2021/08/27 10:20:07;;;;;;;24.13;14.88;;;;;;;23.46;54.00;93412.25;4971990;28;20325;-75
2021/08/27 10:22:36;;;;;;;20.80;15.52;;;;;;;23.11;53.95;93400.56;4972591;28;20026;-75
2021/08/27 10:25:07;;;;;;;21.25;14.98;;;;;;;23.30;54.70;93412.78;4988909;28;20480;-76
2021/08/27 10:27:34;;;;;;;22.85;16.55;;;;;;;23.41;54.26;93399.13;4974089;28;20609;-75
2021/08/27 10:29:59;;;;;;;23.65;14.80;;;;;;;23.46;53.92;93412.25;4975555;28;20046;-76
2021/08/27 10:32:40;;;;;;;20.48;14.88;;;;;;;23.47;53.53;93414.53;4975492;28;20563;-75
2021/08/27 10:35:06;;;;;;;16.05;14.43;;;;;;;23.55;52.70;93415.25;4967528;28;20031;-76
2021/08/27 10:37:46;;;;;;;19.27;15.35;;;;;;;23.64;53.56;93412.84;4966655;28;20504;-76
2021/08/27 10:40:25;;;;;;;26.15;15.45;;;;;;;23.31;52.71;93406.19;4957529;28;20477;-76
2021/08/27 10:43:03;;;;;;;18.55;16.17;;;;;;;23.38;53.41;93400.69;4974235;28;20591;-76
2021/08/27 10:45:45;;;;;;;21.25;15.77;;;;;;;23.35;53.85;93395.28;4975883;28;20610;-76
2021/08/27 10:48:14;;;;;;;17.05;14.73;;;;;;;23.58;53.86;93400.88;4982414;28;20042;-75
2021/08/27 10:51:01;;;;;;;17.05;14.23;;;;;;;23.47;52.64;93392.81;4977297;28;20135;-75
2021/08/27 10:53:31;;;;;;;15.00;13.38;;;;;;;23.40;52.79;93354.94;4968576;28;20049;-75
2021/08/27 10:55:59;;;;;;;16.95;14.07;;;;;;;23.55;51.73;93393.56;4975996;28;20062;-75
2021/08/27 10:58:49;;;;;;;20.52;14.68;;;;;;;23.65;51.29;93398.09;4980721;28;20104;-75
2021/08/27 11:01:28;;;;;;;18.75;14.48;;;;;;;23.65;52.30;93389.19;4978969;28;20069;-76
2021/08/27 11:03:59;;;;;;;17.35;14.38;;;;;;;23.79;50.86;93376.19;4978560;28;20064;-75
2021/08/27 11:06:25;;;;;;;20.05;15.73;;;;;;;23.75;51.36;93375.47;4977001;28;20042;-75
2021/08/27 11:08:51;;;;;;;17.00;14.35;;;;;;;23.81;51.91;93387.41;4977074;28;20042;-75
2021/08/27 11:11:16;;;;;;;19.05;14.45;;;;;;;23.91;51.27;93389.22;4977529;28;20057;-75
2021/08/27 11:13:42;;;;;;;16.48;13.60;;;;;;;23.92;50.37;93390.00;4975706;28;20366;-75
2021/08/27 11:16:20;;;;;;;18.77;13.85;;;;;;;24.07;52.95;93393.28;4976483;28;20461;-75
2021/08/27 11:18:47;;;;;;;19.27;12.73;;;;;;;23.96;49.00;93396.91;4977331;28;20034;-76
2021/08/27 11:21:33;;;;;;;21.95;13.98;;;;;;;24.05;48.10;93382.09;4977598;28;20937;-75
2021/08/27 11:24:22;;;;;;;13.95;12.35;;;;;;;24.28;50.25;93390.31;4977313;28;20519;-75
2021/08/27 11:27:03;;;;;;;18.13;14.40;;;;;;;24.29;48.32;93398.06;4978651;28;20533;-75